Tonopah Airport
KTPH : now visible

Airfield :











YOU CAN JOIN US ON...

 
LOGIN :

Register | Disclaimer

   EN    FR    IT 

 









Legend :    VFR   Marginal VFR   IFR   Intensive IFR   Very Intensive IFR
Visi :
Ceiling :
>= 8 km
>= 3000ft
5 to 8 km
1000 to 3000 ft
1500m to 5 km
500 to 1000 ft
800 to 1500m
200 to 500 ft
< 800m
< 200 ft
Symbols :   Thunderstorms  Fog  Heavy snow  Heavy precipitations  Wind > 20 kt







- Airport Elevation : 5430 ft


KTPH - Tonopah

CURRENT METAR :
  • 200056Z AUTO 30014G19KT 10SM CLR 32/M02 A3000 RMK AO2 SLP078 T03221017

EXPIRED METARs :
  • 192356Z AUTO 28011G19KT 10SM CLR 33/M03 A3001 RMK AO2 SLP083 T03281028 10333 20283 56019
  • 192256Z AUTO 31012G19KT 10SM CLR 33/M04 A3003 RMK AO2 PK WND 29027/2202 SLP087 T03281039

TAF KTPH
Valid from the 20 at 00:00 until the 21 at 00:00 UTC


192320Z 2000/2024 31015KT P6SM FEW120
FM200100 34015G25KT P6SM FEW110 SCT130
FM200800 35007KT P6SM SCT130
FM201900 29020G30KT P6SM SKC
KZLC FIR / North America



MET'MAP, your aeronautical weather chart ! - Copyright ORBIFLY December 2007 - Disclaimer

ORBIFLY MET'MAP TEAM :

Programming & Development : Alexandra Zaïnal
Concept & Development : Baudouin d'Aumeries
Co-Development & Prog : Marc-Olivier Méhu
Technical & hardware support : Manuel Goepfert

Contact : metmap@orbifly.com




SOURCES & CREDITS :

   NOAA       Earth
Advisory